Time;durP1;ratioP1;P1;durP2;ratioP2;P2;SDS_P1;SDS_P2;PMS_P1;PMS_P2;Temp;Humidity;BMP_temperature;BMP_pressure;BME280_temperature;BME280_humidity;BME280_pressure;Samples;Min_cycle;Max_cycle;Signal;HPM_P1;HPM_P2
2024/03/06 00:01:06;;;;;;;28.55;17.95;;;10.40;91.80;;;;;;5105602;28;20395;-73
2024/03/06 00:03:34;;;;;;;25.52;16.65;;;10.30;92.10;;;;;;5105814;28;20036;-74
2024/03/06 00:06:01;;;;;;;24.70;15.90;;;10.30;92.20;;;;;;5108393;28;20054;-71
2024/03/06 00:08:29;;;;;;;23.67;16.10;;;10.40;92.10;;;;;;5091246;28;20047;-70
2024/03/06 00:10:57;;;;;;;24.55;15.35;;;10.10;92.00;;;;;;5107858;28;20043;-73
2024/03/06 00:13:25;;;;;;;24.02;14.95;;;10.00;92.80;;;;;;5089356;28;20039;-74
2024/03/06 00:15:52;;;;;;;21.80;15.00;;;10.10;92.50;;;;;;5102444;28;20032;-75
2024/03/06 00:18:19;;;;;;;22.17;14.35;;;10.10;92.50;;;;;;5109329;28;20048;-74
2024/03/06 00:20:52;;;;;;;26.27;15.38;;;9.90;92.90;;;;;;5108790;28;20032;-71
2024/03/06 00:23:20;;;;;;;20.45;14.73;;;10.00;92.80;;;;;;5112830;28;20044;-74
2024/03/06 00:25:48;;;;;;;23.33;15.20;;;10.00;92.70;;;;;;5106766;28;20052;-74
2024/03/06 00:28:15;;;;;;;22.10;14.35;;;10.10;92.50;;;;;;5094836;28;20043;-71
2024/03/06 00:30:43;;;;;;;21.65;14.98;;;10.10;92.50;;;;;;5110061;28;20043;-75
2024/03/06 00:33:10;;;;;;;21.83;14.70;;;10.00;92.50;;;;;;5107935;27;20554;-73
2024/03/06 00:35:38;;;;;;;20.38;14.65;;;10.00;92.50;;;;;;5076326;28;20039;-71
2024/03/06 00:38:07;;;;;;;20.70;14.10;;;9.90;92.60;;;;;;5111299;28;20035;-72
2024/03/06 00:40:35;;;;;;;21.63;13.80;;;9.60;93.30;;;;;;5092205;28;20066;-72
2024/03/06 00:43:02;;;;;;;21.02;13.68;;;9.60;93.40;;;;;;5089873;27;20067;-73
2024/03/06 00:45:31;;;;;;;22.27;13.77;;;9.70;93.00;;;;;;5096689;27;20431;-71
2024/03/06 00:48:00;;;;;;;25.50;14.27;;;9.70;93.10;;;;;;5106911;27;20039;-70
2024/03/06 00:50:27;;;;;;;26.15;19.30;;;9.80;92.90;;;;;;5103268;27;20491;-74
2024/03/06 00:52:55;;;;;;;27.30;18.15;;;9.90;92.90;;;;;;5104206;27;20070;-71
2024/03/06 00:55:22;;;;;;;21.48;15.00;;;9.90;92.80;;;;;;5112197;28;20398;-73
2024/03/06 00:57:50;;;;;;;20.63;13.82;;;9.60;92.90;;;;;;5085757;28;20523;-72
2024/03/06 01:00:18;;;;;;;20.95;13.43;;;9.70;92.70;;;;;;5090982;28;20543;-69
2024/03/06 01:02:45;;;;;;;20.95;13.93;;;9.60;93.20;;;;;;5109347;28;20067;-71
2024/03/06 01:05:13;;;;;;;24.30;13.10;;;9.60;93.00;;;;;;5106345;27;20060;-69
2024/03/06 01:07:41;;;;;;;21.60;14.30;;;9.80;92.70;;;;;;5108868;28;20047;-71
2024/03/06 01:10:09;;;;;;;23.55;14.82;;;9.60;92.60;;;;;;5110467;28;20040;-70
2024/03/06 01:12:37;;;;;;;24.15;13.80;;;9.60;93.00;;;;;;5105294;28;20490;-70
2024/03/06 01:15:04;;;;;;;23.25;14.35;;;9.70;93.30;;;;;;5118282;27;20061;-71
2024/03/06 01:17:32;;;;;;;25.13;14.13;;;9.70;93.30;;;;;;5118154;27;20039;-71
2024/03/06 01:20:00;;;;;;;24.75;14.45;;;9.60;93.30;;;;;;5118172;27;20046;-70
2024/03/06 01:22:27;;;;;;;21.13;13.70;;;9.70;93.40;;;;;;5114331;27;20040;-72
2024/03/06 01:24:55;;;;;;;19.95;13.93;;;9.70;93.10;;;;;;5115214;27;20071;-71
2024/03/06 01:27:23;;;;;;;21.30;13.07;;;9.70;93.30;;;;;;5112630;27;20522;-71
2024/03/06 01:29:51;;;;;;;20.00;14.13;;;9.60;93.40;;;;;;5118751;27;20047;-73
2024/03/06 01:32:18;;;;;;;24.23;14.40;;;9.70;93.40;;;;;;5111139;27;20120;-72
2024/03/06 01:34:46;;;;;;;23.20;13.98;;;9.70;93.30;;;;;;5113029;27;20035;-71
2024/03/06 01:37:13;;;;;;;22.55;13.35;;;9.80;93.10;;;;;;5098725;28;20035;-71
2024/03/06 01:39:41;;;;;;;22.98;13.23;;;9.60;93.50;;;;;;5104757;28;20376;-73
2024/03/06 01:42:09;;;;;;;27.13;14.02;;;9.50;93.60;;;;;;5086724;28;20040;-72
2024/03/06 01:44:36;;;;;;;22.77;15.05;;;9.50;93.90;;;;;;5109011;28;20048;-73
2024/03/06 01:47:04;;;;;;;19.90;13.88;;;9.60;93.70;;;;;;5088945;28;20043;-72
2024/03/06 01:49:31;;;;;;;23.65;13.95;;;9.60;93.70;;;;;;5109734;28;20031;-72
2024/03/06 01:52:14;;;;;;;27.00;14.57;;;9.60;93.70;;;;;;5110150;28;20546;-73
2024/03/06 01:54:42;;;;;;;23.70;14.75;;;9.60;93.70;;;;;;5105670;28;20035;-72
2024/03/06 01:57:13;;;;;;;24.05;15.40;;;9.60;93.70;;;;;;5087244;28;20447;-72
2024/03/06 01:59:41;;;;;;;;;;;9.70;93.40;;;;;;5110273;28;20039;-73
2024/03/06 02:02:11;;;;;;;18.52;12.93;;;9.80;93.30;;;;;;5108499;28;19919;-70
2024/03/06 02:04:38;;;;;;;29.08;15.07;;;9.60;93.30;;;;;;5107231;28;20039;-71
2024/03/06 02:07:13;;;;;;;21.23;13.88;;;9.60;93.40;;;;;;5098713;28;20395;-72
2024/03/06 02:09:41;;;;;;;18.63;13.73;;;9.70;93.30;;;;;;5108054;28;20067;-72
2024/03/06 02:12:09;;;;;;;22.42;15.52;;;9.70;93.20;;;;;;5110223;28;20045;-71
2024/03/06 02:14:36;;;;;;;24.05;14.10;;;9.60;93.30;;;;;;5106620;28;20043;-71
2024/03/06 02:17:05;;;;;;;23.48;13.52;;;9.70;93.30;;;;;;5108944;28;20059;-70
2024/03/06 02:19:43;;;;;;;21.95;14.15;;;9.80;93.10;;;;;;5091517;28;20092;-70
2024/03/06 02:22:11;;;;;;;22.83;14.38;;;9.60;93.30;;;;;;5106420;28;20124;-71
2024/03/06 02:24:44;;;;;;;21.35;13.93;;;9.10;94.30;;;;;;5107312;28;20127;-70
2024/03/06 02:27:12;;;;;;;21.38;14.63;;;9.10;94.60;;;;;;5103374;28;20387;-71
2024/03/06 02:29:39;;;;;;;23.08;14.77;;;9.00;94.80;;;;;;5109279;28;20096;-70
2024/03/06 02:32:06;;;;;;;26.75;16.77;;;9.20;94.90;;;;;;5107656;28;20519;-70
2024/03/06 02:34:34;;;;;;;25.30;15.73;;;9.30;94.70;;;;;;5107558;28;20044;-73
2024/03/06 02:37:01;;;;;;;27.88;15.48;;;9.30;94.70;;;;;;5107011;28;20040;-68
2024/03/06 02:39:29;;;;;;;27.13;15.82;;;9.40;94.70;;;;;;5105365;28;20039;-70
2024/03/06 02:41:57;;;;;;;24.90;15.70;;;9.50;94.50;;;;;;5108235;28;20089;-69
2024/03/06 02:44:24;;;;;;;26.42;15.65;;;9.70;94.30;;;;;;5107840;28;20035;-71
2024/03/06 02:46:52;;;;;;;22.98;16.60;;;9.50;94.10;;;;;;5105910;28;20040;-71
2024/03/06 02:49:19;;;;;;;34.25;18.42;;;9.50;94.40;;;;;;5090312;28;20426;-73
2024/03/06 02:51:47;;;;;;;31.55;19.77;;;9.60;94.20;;;;;;5113535;28;20036;-75
2024/03/06 02:54:15;;;;;;;27.88;18.30;;;9.70;94.00;;;;;;5106964;28;20152;-77
2024/03/06 02:56:42;;;;;;;28.38;16.75;;;9.70;93.90;;;;;;5111326;28;20084;-71
2024/03/06 02:59:10;;;;;;;28.02;17.05;;;9.80;93.80;;;;;;5096689;28;20063;-73
2024/03/06 03:01:54;;;;;;;29.88;17.85;;;9.90;93.40;;;;;;5086348;28;20047;-72
2024/03/06 03:04:22;;;;;;;28.25;18.48;;;9.80;93.40;;;;;;5083518;28;20741;-70
2024/03/06 03:06:49;;;;;;;30.27;18.08;;;9.60;93.40;;;;;;5089918;28;20036;-71
2024/03/06 03:09:17;;;;;;;28.77;17.95;;;9.60;93.90;;;;;;5091218;28;20174;-70
2024/03/06 03:11:44;;;;;;;26.92;17.30;;;9.50;93.60;;;;;;5089983;28;20107;-70
2024/03/06 03:14:12;;;;;;;31.80;18.00;;;9.60;93.90;;;;;;5064957;28;20102;-72
2024/03/06 03:16:41;;;;;;;29.33;19.70;;;9.50;93.90;;;;;;5089378;28;20036;-70
2024/03/06 03:19:08;;;;;;;30.38;18.85;;;9.70;93.90;;;;;;5098707;28;20398;-72
2024/03/06 03:21:36;;;;;;;28.98;18.90;;;9.80;93.90;;;;;;5093820;28;20072;-69
2024/03/06 03:24:04;;;;;;;30.25;18.10;;;9.70;94.20;;;;;;5095959;28;20143;-68
2024/03/06 03:26:31;;;;;;;29.10;18.48;;;9.60;94.40;;;;;;5094264;28;20051;-69
2024/03/06 03:28:59;;;;;;;32.00;19.52;;;9.50;94.60;;;;;;5088672;28;20029;-71
2024/03/06 03:31:26;;;;;;;28.67;20.00;;;9.40;94.70;;;;;;5074562;28;20475;-70
2024/03/06 03:33:54;;;;;;;34.05;19.88;;;9.30;94.80;;;;;;5076036;28;20035;-71
2024/03/06 03:36:21;;;;;;;28.92;18.55;;;9.30;95.30;;;;;;5094767;28;20039;-68
2024/03/06 03:38:49;;;;;;;29.90;17.83;;;9.30;95.10;;;;;;5092661;28;20040;-71
2024/03/06 03:41:16;;;;;;;29.50;18.75;;;9.30;95.00;;;;;;5090011;28;20437;-71
2024/03/06 03:43:45;;;;;;;27.08;16.23;;;9.30;95.10;;;;;;5094914;28;20032;-72
2024/03/06 03:46:13;;;;;;;25.92;16.00;;;9.20;94.90;;;;;;5095096;28;20135;-71
2024/03/06 03:48:40;;;;;;;29.95;16.48;;;9.30;94.90;;;;;;5071012;28;21377;-70
2024/03/06 03:51:08;;;;;;;24.73;15.82;;;9.50;94.70;;;;;;5091529;28;20121;-71
2024/03/06 03:53:36;;;;;;;30.95;18.38;;;9.30;94.80;;;;;;5092403;28;20051;-72
2024/03/06 03:56:03;;;;;;;24.15;15.68;;;9.30;94.90;;;;;;5067836;28;20054;-70
2024/03/06 03:58:31;;;;;;;23.48;15.88;;;9.40;94.80;;;;;;5105168;28;20051;-71
2024/03/06 04:00:59;;;;;;;25.17;15.80;;;9.50;94.60;;;;;;5106996;28;20032;-72
2024/03/06 04:03:26;;;;;;;26.30;16.73;;;9.40;94.80;;;;;;5108979;28;20402;-71
2024/03/06 04:05:54;;;;;;;26.40;14.70;;;9.40;94.80;;;;;;5107798;28;20028;-72
2024/03/06 04:08:21;;;;;;;26.48;15.77;;;9.30;94.70;;;;;;5107197;28;20398;-71
2024/03/06 04:10:49;;;;;;;21.70;14.65;;;9.30;94.70;;;;;;5110905;28;20086;-70
2024/03/06 04:13:19;;;;;;;25.67;14.10;;;9.30;94.50;;;;;;5104963;28;20556;-72
2024/03/06 04:15:47;;;;;;;23.20;14.82;;;9.40;94.50;;;;;;5086687;28;20435;-72
2024/03/06 04:18:14;;;;;;;23.20;14.60;;;9.50;94.40;;;;;;5093078;28;20035;-71
2024/03/06 04:20:41;;;;;;;24.08;15.18;;;9.40;94.50;;;;;;5087665;28;20051;-71
2024/03/06 04:23:09;;;;;;;22.13;14.02;;;9.30;94.70;;;;;;5110636;28;20059;-69
2024/03/06 04:25:39;;;;;;;23.95;14.88;;;9.10;95.20;;;;;;5110137;28;20662;-75
2024/03/06 04:28:09;;;;;;;22.07;14.80;;;9.20;95.10;;;;;;5111559;28;20386;-69
2024/03/06 04:30:36;;;;;;;18.92;13.10;;;9.10;95.20;;;;;;5106552;28;20111;-70
2024/03/06 04:33:04;;;;;;;18.95;13.18;;;9.00;95.40;;;;;;5109767;28;20051;-69
2024/03/06 04:35:33;;;;;;;22.27;15.27;;;9.00;95.50;;;;;;5107852;28;20430;-71
2024/03/06 04:38:03;;;;;;;27.10;17.42;;;8.90;95.70;;;;;;5110170;28;20341;-69
2024/03/06 04:40:31;;;;;;;23.08;16.83;;;8.60;95.80;;;;;;5108103;28;20067;-72
2024/03/06 04:42:58;;;;;;;26.48;19.23;;;8.70;96.30;;;;;;5109640;28;20043;-70
2024/03/06 04:45:26;;;;;;;29.80;20.25;;;8.70;96.20;;;;;;5110873;28;20032;-71
2024/03/06 04:47:53;;;;;;;28.63;19.17;;;8.70;96.20;;;;;;5103814;28;20151;-75
2024/03/06 04:50:21;;;;;;;28.13;18.65;;;8.70;95.90;;;;;;5109534;28;20043;-75
2024/03/06 04:52:48;;;;;;;29.20;18.23;;;8.70;95.90;;;;;;5106995;28;20031;-70
2024/03/06 04:55:20;;;;;;;25.02;16.42;;;8.60;96.00;;;;;;5107766;28;20114;-72
2024/03/06 04:57:47;;;;;;;26.90;16.60;;;8.60;95.90;;;;;;5104741;28;20047;-72
2024/03/06 05:00:15;;;;;;;28.38;16.90;;;8.70;95.70;;;;;;5110187;28;20042;-73
2024/03/06 05:02:43;;;;;;;24.98;15.57;;;8.70;95.50;;;;;;5085448;28;20126;-72
2024/03/06 05:05:29;;;;;;;23.85;13.13;;;8.80;95.50;;;;;;5106443;28;20022;-73
2024/03/06 05:08:14;;;;;;;17.95;12.13;;;8.80;95.20;;;;;;5108047;28;20708;-72
2024/03/06 05:11:01;;;;;;;22.92;14.40;;;8.80;94.80;;;;;;5104841;28;20011;-73
2024/03/06 05:13:46;;;;;;;19.25;13.30;;;8.60;95.40;;;;;;5089244;28;20059;-73
2024/03/06 05:16:31;;;;;;;20.75;13.43;;;8.70;95.20;;;;;;5103622;28;20031;-69
2024/03/06 05:19:15;;;;;;;21.70;14.98;;;8.80;94.90;;;;;;5104251;28;20375;-73
2024/03/06 05:22:00;;;;;;;26.42;14.65;;;8.70;95.30;;;;;;5110147;27;20027;-73
2024/03/06 05:24:45;;;;;;;21.58;13.00;;;8.90;95.10;;;;;;5107365;28;20467;-70
2024/03/06 05:27:31;;;;;;;20.80;13.25;;;8.90;94.90;;;;;;5085221;28;20077;-70
2024/03/06 05:30:16;;;;;;;19.73;14.90;;;8.90;94.70;;;;;;5088905;28;20111;-69
2024/03/06 05:33:05;;;;;;;27.50;14.35;;;8.80;94.90;;;;;;5088596;28;20526;-69
2024/03/06 05:35:50;;;;;;;19.67;13.95;;;8.90;95.10;;;;;;5102272;28;20035;-71
2024/03/06 05:38:35;;;;;;;20.77;14.00;;;9.00;94.90;;;;;;5106607;28;20023;-72
2024/03/06 05:41:19;;;;;;;24.13;14.27;;;8.90;95.00;;;;;;5096594;28;20478;-70
2024/03/06 05:44:04;;;;;;;24.50;14.63;;;9.00;95.20;;;;;;5076508;28;20023;-70
2024/03/06 05:46:48;;;;;;;21.75;14.05;;;8.80;95.20;;;;;;5101264;28;20054;-71
2024/03/06 05:49:34;;;;;;;22.67;13.95;;;8.90;95.50;;;;;;5088863;27;20024;-69
2024/03/06 05:52:20;;;;;;;18.95;14.00;;;9.10;95.20;;;;;;5102936;28;20031;-71
2024/03/06 05:55:06;;;;;;;20.60;13.95;;;9.10;95.10;;;;;;5098224;28;20035;-70
2024/03/06 05:57:51;;;;;;;20.67;13.90;;;9.20;95.20;;;;;;5089813;28;20028;-70
2024/03/06 06:00:42;;;;;;;18.42;13.10;;;9.30;95.30;;;;;;5103214;28;20292;-72
2024/03/06 06:03:11;;;;;;;25.08;14.45;;;9.40;95.20;;;;;;5105729;28;20418;-72
2024/03/06 06:05:40;;;;;;;36.92;25.52;;;9.40;94.80;;;;;;5107571;28;20542;-71
2024/03/06 06:08:10;;;;;;;23.60;16.58;;;9.60;95.30;;;;;;5103173;28;20062;-72
2024/03/06 06:10:37;;;;;;;77.90;44.80;;;9.60;95.30;;;;;;5103565;28;20491;-73
2024/03/06 06:13:05;;;;;;;24.70;18.25;;;9.90;95.30;;;;;;5091501;28;20842;-75
2024/03/06 06:15:32;;;;;;;22.25;15.23;;;9.80;94.20;;;;;;5109531;28;20486;-71
2024/03/06 06:18:00;;;;;;;24.38;14.32;;;9.50;94.40;;;;;;5101946;28;20044;-74
2024/03/06 06:20:28;;;;;;;20.95;12.80;;;9.60;94.50;;;;;;5105432;28;20560;-70
2024/03/06 06:22:56;;;;;;;18.88;13.00;;;9.60;94.20;;;;;;5103049;28;20035;-74
2024/03/06 06:25:23;;;;;;;23.60;13.63;;;9.70;93.70;;;;;;5086540;28;20064;-76
2024/03/06 06:27:51;;;;;;;34.33;20.73;;;9.80;93.80;;;;;;5093077;28;20490;-70
2024/03/06 06:30:19;;;;;;;70.60;39.08;;;9.80;94.00;;;;;;5108293;28;20481;-75
2024/03/06 06:32:46;;;;;;;37.38;25.45;;;10.30;94.40;;;;;;5112629;28;20386;-75
2024/03/06 06:35:16;;;;;;;21.67;13.82;;;10.40;93.60;;;;;;5106448;28;20036;-71
2024/03/06 06:37:44;;;;;;;21.88;13.13;;;10.20;93.10;;;;;;5112246;28;20031;-73
2024/03/06 06:40:12;;;;;;;16.58;11.05;;;10.00;92.80;;;;;;5112554;28;20440;-71
2024/03/06 06:42:49;;;;;;;17.40;12.32;;;9.90;93.30;;;;;;5078794;28;20390;-73
2024/03/06 06:45:18;;;;;;;16.85;11.73;;;9.80;93.40;;;;;;5105990;28;20048;-72
2024/03/06 06:47:47;;;;;;;112.88;64.93;;;10.00;93.30;;;;;;5109642;28;20105;-71
2024/03/06 06:50:15;;;;;;;32.85;21.52;;;10.50;93.90;;;;;;5106636;28;20035;-71
2024/03/06 06:52:45;;;;;;;32.03;21.95;;;10.00;94.00;;;;;;5110741;28;20035;-72
2024/03/06 06:55:13;;;;;;;24.98;12.93;;;10.40;93.30;;;;;;5094947;28;20555;-73
2024/03/06 06:57:40;;;;;;;19.05;12.27;;;10.30;92.80;;;;;;5108963;28;20051;-73
2024/03/06 07:00:13;;;;;;;18.88;11.45;;;10.40;92.80;;;;;;5089705;28;20047;-74
2024/03/06 07:02:42;;;;;;;17.60;11.35;;;10.40;92.40;;;;;;5074438;28;20044;-73
2024/03/06 07:05:11;;;;;;;20.20;11.70;;;10.40;92.30;;;;;;5104785;28;20051;-72
2024/03/06 07:07:39;;;;;;;15.82;10.35;;;10.40;92.20;;;;;;5090177;28;20046;-75
2024/03/06 07:10:08;;;;;;;16.77;11.05;;;10.30;92.00;;;;;;5107304;28;20116;-70
2024/03/06 07:12:36;;;;;;;20.80;11.45;;;10.30;92.40;;;;;;5104647;28;20036;-74
2024/03/06 07:15:04;;;;;;;16.48;10.82;;;10.50;92.20;;;;;;5106220;28;20406;-71
2024/03/06 07:17:32;;;;;;;17.60;11.32;;;10.70;92.00;;;;;;5101815;28;20032;-74
2024/03/06 07:19:59;;;;;;;18.08;12.00;;;10.90;91.90;;;;;;5102365;28;20118;-72
2024/03/06 07:22:26;;;;;;;16.52;11.27;;;11.00;91.80;;;;;;5095265;28;20115;-74
2024/03/06 07:24:54;;;;;;;17.60;11.38;;;10.80;92.20;;;;;;5106869;28;20042;-73
2024/03/06 07:27:22;;;;;;;19.73;12.23;;;11.00;91.70;;;;;;5104206;27;20035;-71
2024/03/06 07:29:51;;;;;;;19.20;11.73;;;10.90;91.50;;;;;;5116443;27;20040;-74
2024/03/06 07:32:18;;;;;;;16.35;11.50;;;10.80;91.60;;;;;;5085643;28;20174;-73
2024/03/06 07:34:45;;;;;;;19.52;12.25;;;11.00;91.70;;;;;;5106773;28;20044;-73
2024/03/06 07:37:14;;;;;;;18.83;11.95;;;11.00;91.70;;;;;;5110317;28;20115;-72
2024/03/06 07:39:42;;;;;;;18.25;12.02;;;11.10;91.60;;;;;;5107672;28;20035;-71
2024/03/06 07:42:10;;;;;;;30.17;18.02;;;11.20;91.50;;;;;;5108549;28;20070;-74
2024/03/06 07:44:39;;;;;;;22.48;16.58;;;11.30;91.80;;;;;;5076367;28;20066;-73
2024/03/06 07:47:08;;;;;;;20.10;12.50;;;11.30;91.50;;;;;;5089263;28;20407;-73
2024/03/06 07:49:36;;;;;;;18.42;11.82;;;11.30;91.50;;;;;;5086386;28;20403;-71
2024/03/06 07:52:04;;;;;;;18.98;11.57;;;11.30;91.20;;;;;;5107943;28;20050;-72
2024/03/06 07:54:33;;;;;;;21.45;12.80;;;11.50;91.10;;;;;;5108717;28;20032;-74
2024/03/06 07:57:00;;;;;;;19.50;13.02;;;11.10;91.50;;;;;;5086023;28;20111;-71
2024/03/06 07:59:27;;;;;;;20.77;12.70;;;11.20;91.70;;;;;;5089961;28;20040;-73
2024/03/06 08:01:56;;;;;;;21.25;13.50;;;11.40;91.50;;;;;;5108542;28;20039;-71
2024/03/06 08:04:24;;;;;;;19.20;12.10;;;11.50;91.00;;;;;;5093449;28;20032;-73
2024/03/06 08:06:51;;;;;;;23.70;12.18;;;11.60;90.90;;;;;;5090656;28;20032;-71
2024/03/06 08:09:19;;;;;;;19.92;12.10;;;11.80;90.80;;;;;;5090563;28;20047;-72
2024/03/06 08:11:47;;;;;;;16.88;11.57;;;11.70;90.50;;;;;;5111733;28;20152;-71
2024/03/06 08:14:15;;;;;;;18.80;10.77;;;11.40;90.80;;;;;;5091646;28;20055;-73
2024/03/06 08:16:42;;;;;;;16.20;11.20;;;11.40;91.10;;;;;;5070341;28;20043;-72
2024/03/06 08:19:10;;;;;;;18.30;11.32;;;11.80;90.70;;;;;;5104466;28;20043;-71
2024/03/06 08:21:38;;;;;;;17.73;11.45;;;12.10;90.30;;;;;;5087470;28;20465;-73
2024/03/06 08:24:05;;;;;;;19.38;11.57;;;12.30;90.20;;;;;;5106351;28;20040;-74
2024/03/06 08:26:33;;;;;;;17.10;11.75;;;12.40;90.00;;;;;;5104822;28;20032;-71
2024/03/06 08:29:02;;;;;;;17.10;11.43;;;12.40;90.10;;;;;;5086691;28;20410;-73
2024/03/06 08:31:31;;;;;;;19.05;11.15;;;12.50;90.10;;;;;;5091461;28;20035;-71
2024/03/06 08:33:58;;;;;;;18.67;12.20;;;12.70;90.10;;;;;;5101141;28;20059;-72
2024/03/06 08:36:26;;;;;;;18.48;11.63;;;12.90;90.20;;;;;;5100712;28;20040;-70
2024/03/06 08:38:53;;;;;;;16.92;10.60;;;13.00;90.10;;;;;;5100028;28;20039;-71
2024/03/06 08:41:22;;;;;;;19.80;11.18;;;13.00;90.00;;;;;;5095412;28;20368;-73
2024/03/06 08:43:49;;;;;;;15.48;11.32;;;13.30;90.00;;;;;;5093101;28;20390;-71
2024/03/06 08:46:18;;;;;;;16.65;10.98;;;13.40;89.60;;;;;;5110175;28;20047;-71
2024/03/06 08:48:46;;;;;;;17.20;10.27;;;13.40;88.90;;;;;;5098478;28;20040;-74
2024/03/06 08:51:14;;;;;;;22.23;10.00;;;13.00;88.10;;;;;;5089554;28;20047;-71
2024/03/06 08:53:41;;;;;;;17.77;10.40;;;13.20;87.40;;;;;;5102519;28;20044;-73
2024/03/06 08:56:18;;;;;;;17.40;10.75;;;13.50;87.20;;;;;;5092409;28;20444;-72
2024/03/06 08:58:48;;;;;;;17.40;10.75;;;13.60;87.00;;;;;;5104432;28;20112;-71
2024/03/06 09:01:16;;;;;;;17.30;10.13;;;13.60;86.40;;;;;;5106498;28;20084;-72
2024/03/06 09:03:44;;;;;;;15.25;10.07;;;13.90;85.20;;;;;;5105497;28;20036;-73
2024/03/06 09:06:12;;;;;;;18.90;11.25;;;14.10;84.90;;;;;;5109270;28;20051;-72
2024/03/06 09:08:40;;;;;;;17.02;10.80;;;14.00;85.60;;;;;;5082836;27;20031;-73
2024/03/06 09:11:07;;;;;;;17.27;10.63;;;14.20;85.60;;;;;;5099884;28;20043;-74
2024/03/06 09:13:36;;;;;;;15.95;10.07;;;14.50;84.80;;;;;;5102685;28;20039;-75
2024/03/06 09:16:04;;;;;;;18.45;10.27;;;14.20;83.70;;;;;;5106610;28;20071;-72
2024/03/06 09:18:32;;;;;;;18.17;10.82;;;14.30;83.70;;;;;;5102282;27;20062;-70
2024/03/06 09:20:59;;;;;;;18.17;10.35;;;14.50;83.50;;;;;;5078578;28;20082;-72
2024/03/06 09:23:27;;;;;;;17.48;11.68;;;14.50;84.20;;;;;;5104028;28;20057;-72
2024/03/06 09:25:57;;;;;;;;;;;14.80;83.50;;;;;;5102632;28;20046;-71
2024/03/06 09:28:25;;;;;;;18.20;11.27;;;15.20;83.40;;;;;;5099648;28;19920;-72
2024/03/06 09:30:55;;;;;;;16.75;10.82;;;15.60;83.10;;;;;;5069166;28;20044;-72
2024/03/06 09:33:24;;;;;;;15.85;10.80;;;15.80;80.70;;;;;;5103535;28;20032;-70
2024/03/06 09:35:52;;;;;;;15.90;10.88;;;15.80;80.90;;;;;;5086270;28;20510;-71
2024/03/06 09:38:19;;;;;;;19.20;10.43;;;16.10;80.60;;;;;;5092147;28;20032;-71
2024/03/06 09:40:49;;;;;;;16.48;10.77;;;16.30;80.10;;;;;;5100880;28;20426;-71
2024/03/06 09:43:17;;;;;;;18.20;11.18;;;16.10;79.60;;;;;;5106273;28;20120;-71
2024/03/06 09:45:50;;;;;;;16.02;10.65;;;16.10;79.40;;;;;;5104209;28;20055;-71
2024/03/06 09:48:21;;;;;;;16.58;11.00;;;16.00;79.70;;;;;;5103621;28;20044;-71
2024/03/06 09:50:52;;;;;;;16.88;10.95;;;16.10;79.30;;;;;;5104148;28;20385;-70
2024/03/06 09:53:22;;;;;;;15.20;10.82;;;15.90;78.80;;;;;;5107940;28;20046;-71
2024/03/06 09:55:50;;;;;;;17.35;11.00;;;15.70;79.90;;;;;;5099513;28;20044;-72
2024/03/06 09:58:19;;;;;;;16.95;10.77;;;15.70;80.30;;;;;;5106646;27;20048;-73
2024/03/06 10:00:49;;;;;;;17.95;10.88;;;15.70;79.60;;;;;;5099780;27;20037;-71
2024/03/06 10:03:17;;;;;;;18.35;11.02;;;16.00;78.90;;;;;;5065161;28;20036;-71
2024/03/06 10:05:44;;;;;;;15.73;10.35;;;16.10;78.40;;;;;;5109811;28;20043;-73
2024/03/06 10:08:16;;;;;;;17.98;11.23;;;16.50;78.80;;;;;;5103354;28;20131;-73
2024/03/06 10:10:46;;;;;;;17.10;11.13;;;16.80;77.60;;;;;;5106246;28;20149;-74
2024/03/06 10:13:15;;;;;;;15.57;10.98;;;17.00;77.10;;;;;;5092028;28;20242;-74
2024/03/06 10:15:55;;;;;;;16.15;10.27;;;16.70;77.50;;;;;;5106221;28;20039;-73
2024/03/06 10:18:27;;;;;;;19.13;11.02;;;17.00;75.70;;;;;;5105775;28;20027;-75
2024/03/06 10:20:56;;;;;;;18.90;11.98;;;17.10;75.60;;;;;;5097526;28;20047;-74
2024/03/06 10:23:24;;;;;;;16.92;10.38;;;17.10;75.40;;;;;;5080434;28;20031;-74
2024/03/06 10:25:54;;;;;;;15.65;10.25;;;17.30;74.60;;;;;;5102338;28;20510;-71
2024/03/06 10:28:25;;;;;;;;;;;17.60;74.90;;;;;;5087180;28;20031;-73
2024/03/06 10:31:03;;;;;;;17.38;9.23;;;17.90;74.30;;;;;;5085242;28;19924;-75
2024/03/06 10:33:32;;;;;;;16.27;9.88;;;18.30;73.80;;;;;;5101864;28;20068;-74
2024/03/06 10:36:00;;;;;;;17.75;9.75;;;18.50;72.10;;;;;;5108574;28;20055;-71
2024/03/06 10:38:35;;;;;;;16.75;10.50;;;18.40;71.60;;;;;;5104521;28;20046;-72
2024/03/06 10:41:07;;;;;;;18.73;10.70;;;18.50;71.10;;;;;;5104275;28;20043;-74
2024/03/06 10:43:37;;;;;;;18.15;9.90;;;18.40;71.50;;;;;;5104753;28;20042;-72
2024/03/06 10:46:06;;;;;;;;;;;18.00;72.00;;;;;;5105698;28;20144;-73
2024/03/06 10:48:36;;;;;;;13.73;9.23;;;18.40;71.10;;;;;;5108160;28;19919;-72
2024/03/06 10:51:05;;;;;;;17.98;10.10;;;18.60;70.30;;;;;;5080767;28;20518;-73
2024/03/06 10:53:35;;;;;;;17.92;10.60;;;18.30;70.10;;;;;;5086306;28;20054;-74
2024/03/06 10:56:04;;;;;;;17.50;10.05;;;17.90;69.80;;;;;;5084752;28;20519;-71
2024/03/06 10:58:33;;;;;;;17.00;9.90;;;18.00;69.10;;;;;;5103421;28;20050;-71
2024/03/06 11:01:02;;;;;;;14.93;9.40;;;18.50;69.80;;;;;;5107208;28;20531;-73
2024/03/06 11:03:31;;;;;;;14.45;9.55;;;18.40;69.70;;;;;;5104103;28;20040;-73
2024/03/06 11:05:58;;;;;;;16.08;9.55;;;19.10;68.50;;;;;;5109105;28;20035;-72
2024/03/06 11:08:33;;;;;;;14.98;8.88;;;19.70;68.90;;;;;;5108387;28;20041;-74
2024/03/06 11:11:21;;;;;;;17.90;10.30;;;20.10;66.90;;;;;;5105237;28;20150;-74
2024/03/06 11:13:49;;;;;;;16.00;8.95;;;20.20;66.60;;;;;;5106921;28;20613;-73
2024/03/06 11:16:16;;;;;;;17.88;8.82;;;23.30;63.50;;;;;;5105034;28;20123;-73
2024/03/06 11:18:44;;;;;;;13.75;9.00;;;25.00;57.10;;;;;;5108608;28;20032;-71
2024/03/06 11:21:11;;;;;;;13.50;8.38;;;22.20;60.80;;;;;;5109117;28;20050;-73
2024/03/06 11:24:17;;;;;;;13.43;8.93;;;21.30;62.90;;;;;;5110536;28;20088;-74
2024/03/06 11:27:00;;;;;;;11.82;7.78;;;20.80;63.00;;;;;;5106960;28;20038;-70
2024/03/06 11:29:29;;;;;;;12.65;7.93;;;20.70;63.30;;;;;;5088798;28;20044;-72
2024/03/06 11:32:07;;;;;;;11.75;7.15;;;20.20;62.80;;;;;;5085738;28;20078;-71
2024/03/06 11:34:36;;;;;;;14.32;8.10;;;20.30;62.70;;;;;;5105913;28;20434;-74
2024/03/06 11:37:07;;;;;;;14.70;8.07;;;20.40;62.20;;;;;;5089003;28;20379;-74
2024/03/06 11:39:40;;;;;;;11.13;7.47;;;20.50;62.70;;;;;;5092915;28;20100;-74
2024/03/06 11:42:09;;;;;;;11.27;8.18;;;20.70;59.80;;;;;;5109140;28;20416;-74
2024/03/06 11:44:37;;;;;;;11.95;7.78;;;20.70;61.70;;;;;;5107297;28;20032;-75
2024/03/06 11:47:08;;;;;;;12.38;8.13;;;20.80;61.40;;;;;;5111943;28;20058;-74
2024/03/06 11:49:37;;;;;;;13.60;7.10;;;20.70;61.40;;;;;;5105257;28;20386;-72
2024/03/06 11:52:08;;;;;;;13.48;8.27;;;21.10;61.80;;;;;;5110049;28;20044;-72
2024/03/06 11:54:36;;;;;;;11.25;7.28;;;21.20;61.20;;;;;;5109423;28;20441;-73
2024/03/06 11:57:05;;;;;;;10.38;6.75;;;21.90;60.70;;;;;;5108559;28;20043;-72
2024/03/06 11:59:39;;;;;;;10.25;6.50;;;21.30;59.00;;;;;;5107573;28;20043;-72
2024/03/06 12:02:07;;;;;;;9.88;6.80;;;21.60;60.70;;;;;;5109774;28;20120;-71
2024/03/06 12:04:39;;;;;;;12.32;7.03;;;22.20;59.70;;;;;;5107190;28;20043;-73
2024/03/06 12:07:08;;;;;;;12.30;7.07;;;22.40;57.50;;;;;;5116267;27;20043;-73
2024/03/06 12:09:41;;;;;;;10.18;7.30;;;22.40;57.80;;;;;;5088914;28;20032;-75
2024/03/06 12:12:10;;;;;;;9.80;5.65;;;22.30;57.30;;;;;;5110571;28;20051;-74
2024/03/06 12:14:40;;;;;;;8.35;5.40;;;23.80;55.40;;;;;;5117531;27;20555;-73
2024/03/06 12:17:15;;;;;;;8.50;4.60;;;26.70;50.70;;;;;;5099198;28;20300;-73
2024/03/06 12:19:44;;;;;;;8.02;5.57;;;28.70;47.90;;;;;;5092405;28;20032;-73
2024/03/06 12:22:15;;;;;;;8.88;5.75;;;30.90;46.60;;;;;;5100352;28;20046;-73
2024/03/06 12:24:43;;;;;;;10.88;5.28;;;31.60;45.40;;;;;;5116450;27;20114;-71
2024/03/06 12:27:12;;;;;;;8.00;4.75;;;30.80;46.00;;;;;;5103349;28;20114;-74
2024/03/06 12:29:41;;;;;;;8.63;5.03;;;30.20;45.50;;;;;;5108381;28;20115;-73
2024/03/06 12:32:17;;;;;;;9.77;5.55;;;29.60;45.30;;;;;;5107826;28;20207;-73
2024/03/06 12:34:58;;;;;;;9.32;5.25;;;30.00;45.60;;;;;;5097262;28;20491;-73
2024/03/06 12:37:34;;;;;;;8.25;4.13;;;26.00;48.20;;;;;;5106604;28;20035;-74
2024/03/06 12:40:13;;;;;;;8.82;4.55;;;28.00;45.90;;;;;;5089392;28;20124;-73
2024/03/06 12:42:41;;;;;;;9.05;4.88;;;29.20;44.50;;;;;;5090273;28;20385;-73
2024/03/06 12:45:10;;;;;;;6.68;4.03;;;30.80;44.20;;;;;;5091418;28;20187;-71
2024/03/06 12:47:37;;;;;;;6.82;4.00;;;30.50;43.90;;;;;;5110603;28;20036;-72
2024/03/06 12:50:08;;;;;;;8.30;4.20;;;29.50;43.90;;;;;;5095502;28;20142;-74